Country
Station

 

Weather  for  Oklahoma City, Wiley Post Airport  -  United States    United States

  
28 °C (82 °F)
    
 
 

Current METAR for Oklahoma City, Wiley Post Airport is :

KPWA 191453Z 21010KT 10SM CLR 28/21 A2996 RMK AO2 SLP129 T02780206 51007

 

This is a report for Oklahoma City, Wiley Post Airport - United States.
 
The report was made 47 minutes ago, at 14:53 UTC .
The wind was blowing at a speed of 5.1 meters per second (11.5 miles per hour) from south/southwest (210°).
 
The temperature was 28 °C (82 °F), with a dew-point at 21 °C (70 °F).
The temperature felt like 30 °C (86 °F).
 
The atmospheric pressure was 1015 hPa (29.96 inHg).
The relative humidity was 65.8%.
 
The sky was clear.
 
The overall visibility was 16.1 kilometers (10.0 miles).
 

 
 
 
 

Country :   A   B   C   D   E   F   G   H   I   J   K   L   M   N   O   P   Q   R   S   T   U   V   W   Y   Z

 

Site Info  |  Disclaimer  |  Credits  |  Privacy
Contact us  |  Add to favorites
© 2013-2018 METARs - All rights reserved